Aérodrome :
LOGIN :

S'inscrire | Disclaimer

   EN    FR    IT 

 










Légende :    VFR   VFR Marginal   IFR   IFR Intensif   IFR Très Intensif
Visi : 
Plafond : 
>= 8 km
>= 3000ft
5 à 8 km
1000 à 3000 ft
1500m à 5 km
500 à 1000 ft
800 à 1500m
200 à 500 ft
< 800m
< 200 ft
Symboles :   Orages  Brouillard  Fortes neiges  Fortes précipitations  Vent > 20 kt
SIGMETs :   Divers  Orages  Givrage  Turbulence  Onde Orograph.  Cendres Volcan.







- Altitude de l'aérodrome : 124 ft
- Code IATA : RNS
- Voir les cartes d'approche


LFRN - Rennes

DERNIER METAR :
  • 262030Z AUTO 21003KT CAVOK 10/06 Q1017 NOSIG

METARs EXPIRÉS :
  • 262000Z AUTO 22004KT CAVOK 11/06 Q1017 NOSIG
  • 261930Z AUTO 22006KT CAVOK 11/06 Q1017 NOSIG
  • 261900Z AUTO 22004KT CAVOK 12/05 Q1017 TEMPO SHRA
  • 261830Z AUTO 22005KT CAVOK 13/06 Q1017 TEMPO SHRA
  • 261800Z AUTO 23007KT 190V250 CAVOK 13/06 Q1018 TEMPO SHRA

TAF TAF LFRN
Valide du 26 à 18h jusqu'au 27 à 18h UTC


261700Z 2618/2718 22010KT 9999 BKN040
PROB30
TEMPO 2618/2620 5000 SHRA
BECMG 2618/2620 VRB05KT
PROB30
TEMPO 2702/2706 3000 MIFG
BECMG 2707/2709 17012KT
BECMG 2709/2711 20020G35KT
PROB40
TEMPO 2709/2718 5000 SHRA
ATIS : +33 2 99 67 72 50
Pas de NOTAMs connus pour ce terrain.



MET'MAP, la Météo Aéronautique d'un coup d'oeil ! - Copyright ORBIFLY Décembre 2007 - Disclaimer

ORBIFLY MET'MAP TEAM :

Programmation & Développement : Alexandra Zaïnal
Conception & Développement : Baudouin d'Aumeries
Co-Programmation & Développement : Marc-Olivier Méhu
Soutien technique & logistique : Manuel Goepfert

Contact : metmap@orbifly.com




SOURCES & CREDITS :

   NOAA